createdAt,value
2023-04-18T05:01:15.853Z,25.00
2023-04-18T05:02:15.955Z,25.00
2023-04-18T05:03:16.049Z,25.00
2023-04-18T05:04:16.209Z,25.00
2023-04-18T05:05:15.936Z,25.00
2023-04-18T05:06:15.971Z,25.00
2023-04-18T05:07:16.026Z,0.00
2023-04-18T05:08:16.042Z,0.00
2023-04-18T05:09:16.055Z,0.00
2023-04-18T05:10:16.112Z,0.00
2023-04-18T05:11:16.110Z,0.00
2023-04-18T05:12:16.096Z,0.00
2023-04-18T05:13:16.102Z,0.00
2023-04-18T05:14:16.318Z,0.00
2023-04-18T05:15:16.153Z,0.00
2023-04-18T05:16:16.185Z,0.00
2023-04-18T05:17:16.216Z,0.00
2023-04-18T05:18:16.267Z,0.00
2023-04-18T05:19:16.314Z,0.00
2023-04-18T05:20:16.360Z,0.00
2023-04-18T05:21:16.390Z,0.00
2023-04-18T05:22:16.491Z,0.00
2023-04-18T05:23:16.529Z,0.00
2023-04-18T05:24:16.815Z,0.00
2023-04-18T05:25:16.660Z,0.00
2023-04-18T05:26:16.720Z,0.00
2023-04-18T05:27:18.174Z,14.14
2023-04-18T05:28:16.828Z,25.00
2023-04-18T05:29:16.842Z,27.96
2023-04-18T05:30:16.815Z,25.18
2023-04-18T05:31:16.934Z,25.00
2023-04-18T05:32:16.846Z,25.97
2023-04-18T05:33:16.925Z,25.00
2023-04-18T05:34:16.958Z,26.03
2023-04-18T05:35:16.853Z,25.88
2023-04-18T05:36:16.935Z,25.98
2023-04-18T05:37:16.879Z,25.00
2023-04-18T05:38:16.904Z,27.90
2023-04-18T05:39:16.896Z,28.29
2023-04-18T05:40:16.927Z,28.06
2023-04-18T05:41:16.965Z,27.83
2023-04-18T05:42:16.954Z,26.12
2023-04-18T05:43:16.969Z,29.44
2023-04-18T05:44:17.093Z,28.06
2023-04-18T05:45:16.986Z,25.79
2023-04-18T05:46:17.047Z,25.00
2023-04-18T05:47:16.991Z,25.64
2023-04-18T05:48:16.978Z,26.97
2023-04-18T05:49:16.981Z,27.39
2023-04-18T05:50:17.017Z,27.17
2023-04-18T05:51:17.040Z,25.00
2023-04-18T05:52:17.045Z,25.67
2023-04-18T05:53:17.007Z,25.18
2023-04-18T05:54:17.066Z,27.42
2023-04-18T05:55:17.109Z,27.68
2023-04-18T05:56:17.037Z,32.30
2023-04-18T05:57:17.055Z,32.43
2023-04-18T05:58:17.093Z,33.15
2023-04-18T05:59:17.059Z,32.26
2023-04-18T06:00:17.094Z,30.63
2023-04-18T06:01:17.123Z,29.35
2023-04-18T06:02:17.205Z,35.16
2023-04-18T06:03:17.489Z,34.66
2023-04-18T06:04:17.708Z,35.39
2023-04-18T06:05:17.436Z,36.96
2023-04-18T06:06:17.394Z,37.84
2023-04-18T06:07:17.386Z,43.79
2023-04-18T06:08:17.485Z,46.82
2023-04-18T06:09:17.549Z,40.23
2023-04-18T06:10:17.622Z,41.31
2023-04-18T06:11:17.688Z,42.27
2023-04-18T06:12:17.685Z,46.03
2023-04-18T06:13:17.749Z,44.07
2023-04-18T06:14:17.771Z,48.79
2023-04-18T06:15:17.848Z,49.75
2023-04-18T06:16:17.954Z,48.85
2023-04-18T06:17:17.968Z,49.51
2023-04-18T06:18:17.993Z,50.23
2023-04-18T06:19:18.004Z,50.66
2023-04-18T06:20:18.069Z,60.01
2023-04-18T06:21:18.131Z,54.18
2023-04-18T06:22:18.163Z,52.28
2023-04-18T06:23:18.180Z,52.33
2023-04-18T06:24:18.273Z,51.11
2023-04-18T06:25:18.304Z,55.17
2023-04-18T06:26:18.277Z,53.71
2023-04-18T06:27:30.668Z,51.54
2023-04-18T06:28:19.346Z,51.72
2023-04-18T06:29:18.328Z,52.94
2023-04-18T06:30:18.336Z,52.86
2023-04-18T06:31:18.424Z,52.82
2023-04-18T06:32:18.353Z,52.96
2023-04-18T06:33:18.292Z,58.17
2023-04-18T06:34:18.299Z,55.99
2023-04-18T06:35:18.278Z,55.10
2023-04-18T06:36:18.244Z,56.23
2023-04-18T06:37:18.303Z,52.69
2023-04-18T06:38:18.275Z,56.04
2023-04-18T06:39:18.246Z,56.95
2023-04-18T06:40:18.233Z,53.37
2023-04-18T06:41:18.202Z,52.02
2023-04-18T06:42:20.161Z,49.32
2023-04-18T06:43:18.211Z,50.41
2023-04-18T06:44:18.179Z,57.00
2023-04-18T06:45:18.188Z,53.31
2023-04-18T06:46:18.262Z,51.30
2023-04-18T06:47:18.208Z,49.93
2023-04-18T06:48:18.209Z,46.77
2023-04-18T06:49:18.190Z,48.23
2023-04-18T06:50:18.145Z,52.66
2023-04-18T06:51:18.140Z,51.28
2023-04-18T06:52:18.151Z,49.87
2023-04-18T06:53:18.175Z,50.60
2023-04-18T06:54:18.117Z,46.20
2023-04-18T06:55:18.124Z,47.46
2023-04-18T06:56:18.113Z,46.60
2023-04-18T06:57:18.116Z,50.64
2023-04-18T06:58:18.112Z,51.82
2023-04-18T06:59:18.109Z,54.17
2023-04-18T07:00:18.110Z,51.71
2023-04-18T07:01:18.112Z,53.18
2023-04-18T07:02:18.115Z,51.72
2023-04-18T07:03:18.413Z,51.30
2023-04-18T07:04:18.598Z,52.65
2023-04-18T07:05:18.056Z,52.14
2023-04-18T07:06:18.033Z,49.83
2023-04-18T07:07:18.048Z,50.29
2023-04-18T07:09:37.200Z,25.00
2023-04-18T07:10:37.138Z,25.00
2023-04-18T07:11:37.151Z,25.00
2023-04-18T07:12:37.149Z,25.00
2023-04-18T07:13:37.147Z,25.00
2023-04-18T07:14:37.140Z,25.80
2023-04-18T07:15:37.148Z,27.08
2023-04-18T07:16:37.145Z,26.62
2023-04-18T07:17:37.185Z,28.48
2023-04-18T07:18:38.431Z,25.30
2023-04-18T07:19:37.095Z,27.97
2023-04-18T07:20:37.099Z,26.45
2023-04-18T07:21:37.058Z,24.11
2023-04-18T07:22:37.056Z,27.77
2023-04-18T07:23:37.075Z,26.17
2023-04-18T07:24:37.059Z,27.01
2023-04-18T07:25:37.061Z,26.71
2023-04-18T07:26:37.109Z,25.82
2023-04-18T07:27:37.085Z,27.10
2023-04-18T07:28:37.030Z,31.71
2023-04-18T07:29:37.051Z,115.71
2023-04-18T07:30:37.056Z,105.99
2023-04-18T07:31:37.017Z,110.62
2023-04-18T07:32:37.057Z,112.41
2023-04-18T07:33:37.023Z,126.08
2023-04-18T07:34:36.969Z,134.69
2023-04-18T07:35:37.011Z,137.80
2023-04-18T07:36:36.976Z,140.22
2023-04-18T07:37:36.983Z,137.79
2023-04-18T07:38:36.967Z,131.78
2023-04-18T07:39:45.489Z,133.51
2023-04-18T07:40:37.090Z,134.23
2023-04-18T07:41:39.869Z,134.57
2023-04-18T07:42:36.986Z,133.93
2023-04-18T07:43:49.075Z,134.53
2023-04-18T07:44:38.708Z,134.48
2023-04-18T07:45:37.907Z,136.33
2023-04-18T07:46:37.050Z,141.16
2023-04-18T07:47:36.920Z,147.01
2023-04-18T07:48:36.930Z,154.28
2023-04-18T07:49:36.907Z,157.05
2023-04-18T07:50:36.930Z,170.19
2023-04-18T07:51:36.868Z,164.16
2023-04-18T07:52:38.212Z,161.90
2023-04-18T07:53:36.898Z,185.84
2023-04-18T07:54:36.879Z,196.15
2023-04-18T07:55:36.856Z,179.47
2023-04-18T07:56:36.881Z,164.76
2023-04-18T07:57:36.855Z,158.23
2023-04-18T07:58:36.907Z,155.52
2023-04-18T07:59:36.916Z,146.15
2023-04-18T08:00:36.876Z,141.03
2023-04-18T08:01:36.837Z,135.62
2023-04-18T08:02:36.972Z,126.92
2023-04-18T08:03:37.086Z,123.94
2023-04-18T08:04:36.948Z,119.26
2023-04-18T08:05:36.915Z,117.63
2023-04-18T08:06:36.908Z,118.45
2023-04-18T08:07:36.869Z,115.14
2023-04-18T08:08:36.930Z,115.44
2023-04-18T08:09:36.884Z,111.79
2023-04-18T08:10:36.878Z,110.68
2023-04-18T08:11:36.871Z,108.58
2023-04-18T08:12:36.882Z,103.40
2023-04-18T08:13:36.967Z,102.01
2023-04-18T08:14:36.979Z,101.91
2023-04-18T08:15:36.900Z,100.05
2023-04-18T08:16:36.980Z,99.50
2023-04-18T08:17:36.977Z,105.99
2023-04-18T08:18:36.898Z,110.09
2023-04-18T08:19:36.911Z,109.73
2023-04-18T08:20:36.929Z,111.68
2023-04-18T08:21:36.895Z,102.58
2023-04-18T08:22:44.072Z,100.81
2023-04-18T08:23:37.889Z,101.02
2023-04-18T08:24:36.859Z,101.52
2023-04-18T08:25:36.898Z,102.87
2023-04-18T08:26:36.926Z,104.79
2023-04-18T08:27:36.859Z,98.75
2023-04-18T08:28:36.828Z,97.24
2023-04-18T08:29:36.819Z,96.94
2023-04-18T08:30:36.819Z,95.38
2023-04-18T08:31:36.909Z,92.91
2023-04-18T08:32:36.872Z,95.09
2023-04-18T08:33:36.864Z,96.92
2023-04-18T08:34:36.799Z,99.60
2023-04-18T08:35:36.840Z,98.75
2023-04-18T08:36:36.791Z,97.29
2023-04-18T08:37:36.810Z,102.61
2023-04-18T08:38:36.794Z,107.26
2023-04-18T08:39:36.778Z,105.44
2023-04-18T08:40:39.074Z,117.79
2023-04-18T08:41:36.826Z,117.31
2023-04-18T08:42:36.862Z,119.01
2023-04-18T08:43:36.894Z,123.75
2023-04-18T08:44:38.520Z,121.94
2023-04-18T08:45:37.313Z,124.68
2023-04-18T08:46:37.061Z,125.27
2023-04-18T08:47:37.194Z,126.48
2023-04-18T08:48:37.097Z,125.87
2023-04-18T08:49:37.112Z,131.34
2023-04-18T08:50:37.086Z,124.40
2023-04-18T08:51:37.197Z,142.39
2023-04-18T08:52:37.177Z,132.05
2023-04-18T08:53:37.145Z,143.20
2023-04-18T08:54:37.154Z,140.40
2023-04-18T08:55:37.130Z,141.58
2023-04-18T08:56:37.128Z,103.61
2023-04-18T08:57:37.222Z,21.97
2023-04-18T08:58:37.245Z,21.96
2023-04-18T08:59:37.250Z,21.23
2023-04-18T09:00:37.270Z,25.00
2023-04-18T09:01:37.537Z,23.92
2023-04-18T09:02:37.362Z,28.50
2023-04-18T09:03:37.708Z,26.50
2023-04-18T09:04:37.437Z,14.84
2023-04-18T09:05:37.473Z,21.41
2023-04-18T09:06:37.480Z,41.34
2023-04-18T09:07:37.545Z,65.10
2023-04-18T09:08:37.591Z,80.70
2023-04-18T09:09:37.650Z,70.72
2023-04-18T09:10:37.730Z,74.87
2023-04-18T09:11:37.768Z,64.95
2023-04-18T09:12:37.867Z,92.75
2023-04-18T09:13:37.876Z,114.88
2023-04-18T09:14:37.910Z,146.11
2023-04-18T09:15:37.940Z,150.49
2023-04-18T09:16:38.054Z,159.31
2023-04-18T09:17:38.044Z,158.80
2023-04-18T09:18:38.012Z,159.35
2023-04-18T09:19:38.018Z,158.35
2023-04-18T09:20:38.351Z,149.80
2023-04-18T09:21:37.977Z,148.09
2023-04-18T09:22:39.979Z,147.67
2023-04-18T09:23:38.074Z,158.27
2023-04-18T09:24:38.095Z,164.67
2023-04-18T09:25:39.869Z,165.94
2023-04-18T09:26:38.165Z,173.71
2023-04-18T09:27:38.181Z,173.01
2023-04-18T09:28:38.117Z,173.76
2023-04-18T09:29:38.147Z,179.71
2023-04-18T09:30:38.212Z,186.30
2023-04-18T09:31:38.138Z,186.60
2023-04-18T09:32:38.129Z,193.17
2023-04-18T09:33:38.166Z,195.99
2023-04-18T09:34:38.086Z,209.15
2023-04-18T09:35:38.090Z,207.08
2023-04-18T09:36:38.114Z,242.70
2023-04-18T09:37:38.097Z,236.11
2023-04-18T09:38:38.103Z,263.21
2023-04-18T09:39:38.057Z,311.93
2023-04-18T09:40:38.069Z,289.65
2023-04-18T09:41:38.059Z,322.51
2023-04-18T09:42:38.046Z,293.94
2023-04-18T09:43:38.038Z,300.84
2023-04-18T09:44:38.058Z,310.75
2023-04-18T09:45:38.064Z,276.62
2023-04-18T09:46:38.044Z,247.62
2023-04-18T09:47:38.040Z,250.56
2023-04-18T09:48:38.025Z,239.75
2023-04-18T09:49:38.102Z,249.02
2023-04-18T09:50:37.999Z,258.79
2023-04-18T09:51:37.978Z,247.93
2023-04-18T09:52:37.969Z,252.43
2023-04-18T09:53:37.965Z,249.30
2023-04-18T09:54:37.936Z,250.00
2023-04-18T09:55:37.992Z,245.47
2023-04-18T09:56:37.941Z,230.85
2023-04-18T09:57:37.940Z,233.71
2023-04-18T09:58:37.907Z,223.58
2023-04-18T09:59:37.907Z,217.59
2023-04-18T10:00:37.940Z,220.75
2023-04-18T10:01:38.018Z,220.63
2023-04-18T10:02:37.965Z,217.31
2023-04-18T10:03:38.035Z,211.18
2023-04-18T10:04:37.983Z,210.86
2023-04-18T10:05:37.898Z,199.54
2023-04-18T10:06:37.923Z,206.70
2023-04-18T10:07:37.949Z,202.86
2023-04-18T10:08:38.048Z,180.20
2023-04-18T10:09:38.053Z,160.85
2023-04-18T10:10:39.183Z,154.99
2023-04-18T10:11:38.121Z,153.96
2023-04-18T10:12:38.128Z,151.87
2023-04-18T10:13:38.209Z,149.23
2023-04-18T10:14:38.302Z,151.72
2023-04-18T10:15:38.401Z,151.63
2023-04-18T10:16:38.394Z,153.20
2023-04-18T10:17:38.461Z,144.47
2023-04-18T10:18:38.614Z,143.58
2023-04-18T10:19:38.507Z,144.21
2023-04-18T10:20:38.551Z,126.56
2023-04-18T10:21:38.627Z,92.80
2023-04-18T10:22:38.710Z,79.38
2023-04-18T10:23:38.761Z,86.47
2023-04-18T10:24:38.768Z,81.91
2023-04-18T10:25:38.797Z,84.14
2023-04-18T10:26:38.838Z,75.45
2023-04-18T10:27:38.887Z,61.24
2023-04-18T10:28:39.467Z,66.08
2023-04-18T10:29:38.991Z,62.72
2023-04-18T10:30:38.993Z,61.86
2023-04-18T10:31:39.101Z,49.37
2023-04-18T10:32:39.122Z,44.77
2023-04-18T10:33:41.107Z,43.66
2023-04-18T10:34:39.073Z,44.03
2023-04-18T10:35:41.252Z,40.00
2023-04-18T10:36:39.078Z,38.04
2023-04-18T10:37:39.066Z,28.99
2023-04-18T10:38:39.054Z,12.71
2023-04-18T10:39:39.031Z,0.00
2023-04-18T10:40:39.052Z,0.00
2023-04-18T10:41:39.028Z,16.34
2023-04-18T10:42:39.020Z,26.14
2023-04-18T10:43:39.007Z,25.68
2023-04-18T10:44:39.022Z,30.51
2023-04-18T10:45:39.121Z,28.95
2023-04-18T10:46:39.135Z,33.17
2023-04-18T10:47:39.249Z,30.83
2023-04-18T10:48:39.290Z,32.84
2023-04-18T10:49:39.272Z,33.47
2023-04-18T10:50:39.276Z,34.96
2023-04-18T10:51:39.376Z,40.72
2023-04-18T10:52:39.435Z,43.48
2023-04-18T10:53:39.464Z,51.67
2023-04-18T10:54:39.481Z,58.45
2023-04-18T10:55:39.506Z,63.26
2023-04-18T10:56:39.537Z,67.53
2023-04-18T10:57:39.584Z,70.07
2023-04-18T10:58:39.600Z,69.46
2023-04-18T10:59:39.604Z,75.13
2023-04-18T11:00:39.622Z,78.23
2023-04-18T11:01:39.762Z,83.98
2023-04-18T11:02:39.835Z,97.62
2023-04-18T11:03:39.661Z,115.72
2023-04-18T11:04:39.594Z,112.83
2023-04-18T11:05:39.588Z,102.85
2023-04-18T11:06:39.651Z,106.42
2023-04-18T11:07:39.599Z,105.24
2023-04-18T11:08:39.602Z,105.33
2023-04-18T11:09:39.653Z,108.93
2023-04-18T11:10:39.669Z,105.35
2023-04-18T11:11:39.706Z,106.71
2023-04-18T11:12:39.760Z,108.74
2023-04-18T11:13:39.791Z,110.18
2023-04-18T11:14:39.790Z,100.53
2023-04-18T11:15:39.796Z,91.11
2023-04-18T11:16:39.995Z,94.61
2023-04-18T11:17:40.075Z,97.82
2023-04-18T11:18:39.858Z,97.55
2023-04-18T11:19:39.874Z,100.85
2023-04-18T11:20:39.987Z,102.45
2023-04-18T11:21:39.959Z,104.35
2023-04-18T11:22:40.034Z,98.80
2023-04-18T11:23:40.000Z,89.03
2023-04-18T11:24:40.027Z,89.34
2023-04-18T11:25:40.062Z,106.76
2023-04-18T11:26:40.030Z,106.97
2023-04-18T11:27:40.041Z,110.35
2023-04-18T11:28:40.046Z,115.34
2023-04-18T11:29:40.115Z,117.75
2023-04-18T11:30:40.077Z,118.68
2023-04-18T11:31:40.149Z,115.34
2023-04-18T11:32:40.174Z,107.60
2023-04-18T11:33:40.148Z,109.37
2023-04-18T11:34:40.173Z,108.36
2023-04-18T11:35:40.284Z,116.55
2023-04-18T11:36:40.156Z,112.23
2023-04-18T11:37:40.172Z,109.15
2023-04-18T11:38:40.156Z,106.17
2023-04-18T11:39:40.165Z,104.88
2023-04-18T11:40:40.120Z,107.43
2023-04-18T11:41:40.161Z,105.66
2023-04-18T11:42:40.136Z,102.43
2023-04-18T11:43:40.149Z,101.23
2023-04-18T11:44:40.160Z,103.21
2023-04-18T11:45:40.195Z,101.87
2023-04-18T11:46:40.148Z,106.00
2023-04-18T11:47:40.198Z,106.88
2023-04-18T11:48:40.190Z,104.41
2023-04-18T11:49:40.186Z,105.32
2023-04-18T11:50:40.157Z,98.37
2023-04-18T11:51:40.164Z,96.08
2023-04-18T11:52:40.135Z,98.44
2023-04-18T11:53:40.222Z,105.03
2023-04-18T11:54:40.158Z,108.63
2023-04-18T11:55:40.136Z,111.58
2023-04-18T11:56:40.132Z,112.87
2023-04-18T11:57:40.211Z,106.64
2023-04-18T11:58:40.122Z,104.90
2023-04-18T11:59:40.119Z,106.03
2023-04-18T12:00:40.172Z,106.07
2023-04-18T12:01:40.108Z,102.67
2023-04-18T12:02:40.341Z,103.16
2023-04-18T12:03:40.304Z,99.90
2023-04-18T12:04:40.323Z,100.99
2023-04-18T12:05:40.170Z,104.35
2023-04-18T12:06:40.103Z,103.43
2023-04-18T12:07:40.124Z,100.64
2023-04-18T12:08:40.145Z,95.54
2023-04-18T12:09:40.115Z,96.86
2023-04-18T12:10:40.108Z,93.15
2023-04-18T12:11:40.117Z,92.67
2023-04-18T12:12:40.080Z,86.93
2023-04-18T12:13:40.249Z,91.23
2023-04-18T12:14:40.096Z,78.71
2023-04-18T12:15:40.227Z,79.59
2023-04-18T12:16:40.053Z,76.56
2023-04-18T12:17:40.131Z,79.45
2023-04-18T12:18:40.109Z,78.33
2023-04-18T12:19:40.078Z,78.55
2023-04-18T12:20:40.127Z,63.93
2023-04-18T12:21:40.115Z,69.98
2023-04-18T12:22:40.141Z,70.16
2023-04-18T12:23:40.157Z,70.69
2023-04-18T12:24:40.154Z,68.57
2023-04-18T12:25:40.168Z,61.96
2023-04-18T12:26:40.189Z,60.72
2023-04-18T12:27:40.181Z,60.26
2023-04-18T12:28:40.253Z,58.02
2023-04-18T12:29:40.295Z,46.89
2023-04-18T12:30:40.308Z,43.75
2023-04-18T12:31:40.400Z,42.46
2023-04-18T12:32:40.399Z,45.39
2023-04-18T12:33:40.468Z,49.41
2023-04-18T12:34:40.492Z,53.79
2023-04-18T12:35:40.547Z,48.69
2023-04-18T12:36:40.666Z,50.30
2023-04-18T12:37:40.629Z,50.02
2023-04-18T12:38:40.711Z,50.42
2023-04-18T12:39:40.725Z,50.20
2023-04-18T12:40:40.802Z,53.42
2023-04-18T12:41:40.816Z,54.57
2023-04-18T12:42:40.845Z,53.63
2023-04-18T12:43:40.882Z,53.45
2023-04-18T12:44:40.958Z,61.11
2023-04-18T12:45:40.973Z,58.91
2023-04-18T12:46:41.117Z,57.78
2023-04-18T12:47:41.095Z,47.67
2023-04-18T12:48:41.055Z,49.37
2023-04-18T12:49:41.111Z,48.99
2023-04-18T12:50:41.180Z,47.17
2023-04-18T12:51:41.185Z,49.91
2023-04-18T12:52:41.206Z,53.05
2023-04-18T12:53:41.237Z,53.43
2023-04-18T12:54:41.306Z,50.64
2023-04-18T12:55:41.381Z,53.99
2023-04-18T12:56:41.350Z,49.04
2023-04-18T12:57:41.401Z,56.37
2023-04-18T12:58:41.452Z,55.81
2023-04-18T12:59:41.509Z,53.28
2023-04-18T13:00:41.577Z,51.63
2023-04-18T13:01:41.585Z,50.08
2023-04-18T13:02:41.720Z,49.75
2023-04-18T13:03:41.751Z,47.52
2023-04-18T13:04:41.899Z,47.63
2023-04-18T13:05:41.712Z,47.03
2023-04-18T13:06:41.756Z,48.23
2023-04-18T13:07:41.792Z,53.27
2023-04-18T13:08:41.817Z,55.27
2023-04-18T13:09:41.828Z,50.05
2023-04-18T13:10:41.914Z,47.67
2023-04-18T13:11:41.925Z,48.69
2023-04-18T13:12:41.936Z,43.48
2023-04-18T13:13:41.968Z,37.28
2023-04-18T13:14:41.980Z,34.46
2023-04-18T13:15:42.034Z,35.68
2023-04-18T13:16:43.783Z,26.07
2023-04-18T13:17:42.247Z,33.72
2023-04-18T13:18:42.113Z,29.52
2023-04-18T13:19:42.170Z,27.54
2023-04-18T13:20:42.213Z,25.56
2023-04-18T13:21:42.245Z,32.13
2023-04-18T13:22:42.284Z,32.67
2023-04-18T13:23:42.309Z,30.95
2023-04-18T13:24:42.346Z,26.18
2023-04-18T13:25:42.415Z,30.29
2023-04-18T13:26:42.460Z,28.24
2023-04-18T13:27:42.500Z,24.41
2023-04-18T13:28:42.557Z,28.15
2023-04-18T13:29:42.597Z,25.08
2023-04-18T13:30:42.660Z,28.61
2023-04-18T13:31:42.735Z,30.67
2023-04-18T13:32:43.199Z,25.65
2023-04-18T13:33:42.792Z,29.45
2023-04-18T13:34:42.856Z,37.37
2023-04-18T13:35:42.878Z,39.59
2023-04-18T13:36:42.952Z,45.01
2023-04-18T13:37:42.967Z,50.24
2023-04-18T13:38:43.002Z,45.96
2023-04-18T13:39:43.083Z,43.39
2023-04-18T13:40:43.080Z,40.70
2023-04-18T13:41:43.110Z,38.57
2023-04-18T13:42:43.148Z,54.42
2023-04-18T13:43:43.144Z,68.23
2023-04-18T13:44:43.194Z,65.60
2023-04-18T13:45:43.236Z,70.71
2023-04-18T13:46:43.198Z,75.22
2023-04-18T13:47:43.252Z,82.97
2023-04-18T13:48:43.203Z,81.26
2023-04-18T13:49:43.351Z,81.68
2023-04-18T13:50:43.260Z,66.06
2023-04-18T13:51:43.273Z,66.92
2023-04-18T13:52:43.228Z,58.90
2023-04-18T13:53:43.268Z,70.22
2023-04-18T13:54:43.237Z,73.34
2023-04-18T13:55:43.249Z,69.96
2023-04-18T13:56:43.284Z,74.41
2023-04-18T13:57:43.297Z,73.00
2023-04-18T13:58:43.246Z,73.93
2023-04-18T13:59:43.262Z,76.61
2023-04-18T14:00:43.257Z,78.51
2023-04-18T14:01:43.255Z,81.92
2023-04-18T14:02:43.353Z,83.94
2023-04-18T14:03:44.077Z,83.30
2023-04-18T14:04:43.360Z,89.26
2023-04-18T14:05:43.347Z,95.62
2023-04-18T14:06:43.288Z,97.56
2023-04-18T14:07:43.288Z,98.55
2023-04-18T14:08:43.346Z,99.00
2023-04-18T14:09:43.391Z,102.44
2023-04-18T14:10:43.420Z,110.04
2023-04-18T14:11:43.506Z,104.48
2023-04-18T14:12:43.490Z,104.88
2023-04-18T14:13:43.560Z,106.74
2023-04-18T14:14:43.588Z,106.10
2023-04-18T14:15:43.706Z,111.33
2023-04-18T14:16:43.704Z,113.49
2023-04-18T14:17:45.781Z,115.01
2023-04-18T14:18:43.814Z,116.48
2023-04-18T14:19:43.915Z,115.95
2023-04-18T14:20:43.926Z,118.23
2023-04-18T14:21:44.424Z,118.10
2023-04-18T14:22:44.071Z,120.88
2023-04-18T14:23:44.143Z,123.24
2023-04-18T14:24:44.226Z,123.63
2023-04-18T14:25:44.280Z,123.27
2023-04-18T14:26:44.274Z,123.99
2023-04-18T14:27:44.420Z,124.99
2023-04-18T14:28:44.428Z,126.13
2023-04-18T14:29:44.473Z,126.03
2023-04-18T14:30:44.538Z,126.79
2023-04-18T14:31:44.733Z,125.30
2023-04-18T14:32:44.671Z,126.65
2023-04-18T14:33:44.712Z,127.08
2023-04-18T14:34:44.746Z,127.30
2023-04-18T14:35:44.777Z,126.81
2023-04-18T14:36:44.843Z,128.13
2023-04-18T14:37:44.928Z,127.76
2023-04-18T14:38:44.931Z,128.25
2023-04-18T14:39:44.965Z,128.81
2023-04-18T14:40:45.007Z,129.48
2023-04-18T14:41:45.083Z,129.52
2023-04-18T14:42:45.124Z,128.94
2023-04-18T14:43:45.183Z,128.97
2023-04-18T14:44:45.270Z,128.65
2023-04-18T14:45:45.288Z,128.85
2023-04-18T14:46:45.359Z,129.39
2023-04-18T14:47:45.449Z,128.59
2023-04-18T14:48:45.454Z,126.61
2023-04-18T14:49:45.496Z,130.57
2023-04-18T14:50:45.519Z,129.77
2023-04-18T14:51:45.552Z,129.97
2023-04-18T14:52:45.601Z,129.84
2023-04-18T14:53:45.705Z,129.93
2023-04-18T14:54:45.740Z,130.00
2023-04-18T14:55:45.751Z,129.83
2023-04-18T14:56:45.795Z,129.54
2023-04-18T14:57:45.860Z,130.76
2023-04-18T14:58:45.912Z,130.39
2023-04-18T14:59:45.967Z,128.72
2023-04-18T15:00:46.010Z,129.14
2023-04-18T15:01:46.081Z,130.83
2023-04-18T15:02:46.229Z,131.57
2023-04-18T15:03:46.372Z,130.26
2023-04-18T15:04:46.225Z,129.38
2023-04-18T15:05:46.233Z,128.13
2023-04-18T15:06:46.265Z,129.91
2023-04-18T15:07:46.292Z,130.64
2023-04-18T15:08:46.334Z,131.72
2023-04-18T15:09:46.378Z,132.01
2023-04-18T15:10:46.439Z,131.15
2023-04-18T15:11:46.452Z,132.52
2023-04-18T15:12:46.437Z,132.02
2023-04-18T15:13:46.515Z,130.93
2023-04-18T15:14:46.518Z,129.69
2023-04-18T15:15:46.583Z,133.39
2023-04-18T15:16:46.643Z,131.83
2023-04-18T15:17:46.704Z,132.13
2023-04-18T15:18:46.686Z,131.53
2023-04-18T15:19:46.761Z,130.83
2023-04-18T15:20:46.791Z,131.22
2023-04-18T15:21:46.803Z,131.80
2023-04-18T15:22:46.854Z,130.80
2023-04-18T15:23:46.870Z,130.11
2023-04-18T15:24:46.921Z,130.34
2023-04-18T15:25:46.934Z,129.47
2023-04-18T15:26:47.001Z,128.90
2023-04-18T15:27:47.040Z,131.52
2023-04-18T15:28:47.072Z,131.98
2023-04-18T15:29:47.111Z,130.47
2023-04-18T15:30:47.117Z,131.26
2023-04-18T15:31:47.178Z,130.11
2023-04-18T15:32:47.260Z,129.83
2023-04-18T15:33:47.288Z,131.51
2023-04-18T15:34:47.308Z,128.44
2023-04-18T15:35:47.293Z,130.64
2023-04-18T15:36:47.373Z,128.85
2023-04-18T15:37:47.404Z,129.22
2023-04-18T15:38:47.429Z,131.34
2023-04-18T15:39:47.502Z,129.44
2023-04-18T15:40:47.517Z,127.58
2023-04-18T15:41:47.573Z,131.46
2023-04-18T15:42:47.561Z,129.68
2023-04-18T15:43:47.607Z,130.80
2023-04-18T15:44:47.646Z,133.55
2023-04-18T15:45:47.728Z,130.20
2023-04-18T15:46:47.729Z,128.74
2023-04-18T15:47:47.962Z,128.15
2023-04-18T15:48:47.831Z,130.30
2023-04-18T15:49:47.875Z,130.91
2023-04-18T15:50:47.878Z,127.41
2023-04-18T15:51:47.924Z,132.23
2023-04-18T15:52:47.943Z,129.75
2023-04-18T15:53:47.973Z,129.70
2023-04-18T15:54:48.037Z,130.12
2023-04-18T15:55:48.067Z,131.53
2023-04-18T15:56:48.115Z,130.94
2023-04-18T15:57:48.134Z,129.82
2023-04-18T15:58:48.167Z,132.67
2023-04-18T15:59:48.256Z,130.09
2023-04-18T16:00:48.248Z,130.50
2023-04-18T16:01:48.346Z,131.52
2023-04-18T16:02:48.416Z,131.41
2023-04-18T16:03:48.460Z,129.70
2023-04-18T16:04:49.190Z,132.13
2023-04-18T16:05:48.481Z,129.15
2023-04-18T16:06:48.519Z,129.25
2023-04-18T16:07:48.566Z,128.32
2023-04-18T16:08:48.585Z,130.56
2023-04-18T16:09:48.608Z,130.46
2023-04-18T16:10:48.724Z,130.03
2023-04-18T16:11:48.777Z,131.56
2023-04-18T16:12:48.776Z,128.01
2023-04-18T16:13:48.924Z,129.08
2023-04-18T16:14:48.868Z,128.97
2023-04-18T16:15:48.920Z,132.36
2023-04-18T16:16:48.988Z,128.58
2023-04-18T16:17:49.065Z,129.41
2023-04-18T16:18:49.049Z,129.97
2023-04-18T16:19:49.121Z,129.39
2023-04-18T16:20:49.128Z,130.57
2023-04-18T16:21:49.215Z,130.97
2023-04-18T16:22:49.245Z,128.39
2023-04-18T16:23:49.279Z,130.99
2023-04-18T16:24:49.359Z,131.49
2023-04-18T16:25:49.405Z,130.89
2023-04-18T16:26:49.429Z,130.16
2023-04-18T16:27:49.548Z,127.45
2023-04-18T16:28:49.559Z,130.74
2023-04-18T16:29:49.611Z,131.28
2023-04-18T16:30:49.664Z,131.66
2023-04-18T16:31:49.735Z,130.83
2023-04-18T16:32:49.889Z,129.13
2023-04-18T16:33:49.890Z,132.46
2023-04-18T16:34:49.898Z,131.62
2023-04-18T16:35:49.952Z,131.94
2023-04-18T16:36:51.121Z,130.41
2023-04-18T16:37:50.055Z,131.42
2023-04-18T16:38:50.079Z,129.23
2023-04-18T16:39:50.205Z,130.68
2023-04-18T16:40:50.196Z,130.83
2023-04-18T16:41:50.266Z,129.00
2023-04-18T16:42:50.314Z,131.15
2023-04-18T16:43:50.378Z,131.58
2023-04-18T16:44:50.421Z,130.01
2023-04-18T16:45:50.480Z,131.35
2023-04-18T16:46:50.616Z,130.86
2023-04-18T16:47:50.634Z,132.02
2023-04-18T16:48:52.379Z,132.49
2023-04-18T16:49:50.702Z,131.94
2023-04-18T16:50:50.770Z,131.59
2023-04-18T16:51:50.819Z,129.27
2023-04-18T16:52:50.868Z,131.20
2023-04-18T16:53:50.916Z,132.27
2023-04-18T16:54:52.491Z,130.89
2023-04-18T16:55:51.064Z,131.03
2023-04-18T16:56:51.102Z,130.97
2023-04-18T16:57:51.145Z,131.63
2023-04-18T16:58:51.184Z,131.57
2023-04-18T16:59:51.400Z,131.46
2023-04-18T17:00:51.325Z,131.80
